createdAt,value
2022-11-16T00:01:34.437Z,28.55
2022-11-16T00:04:04.449Z,22.90
2022-11-16T00:06:31.838Z,23.83
2022-11-16T00:09:21.010Z,23.02
2022-11-16T00:11:58.610Z,23.05
2022-11-16T00:14:29.522Z,21.90
2022-11-16T00:16:57.023Z,21.23
2022-11-16T00:19:25.485Z,23.40
2022-11-16T00:21:54.220Z,22.90
2022-11-16T00:24:23.713Z,22.17
2022-11-16T00:26:53.970Z,22.58
2022-11-16T00:29:24.659Z,25.50
2022-11-16T00:31:53.726Z,28.75
2022-11-16T00:34:22.387Z,24.42
2022-11-16T00:36:49.995Z,27.20
2022-11-16T00:39:18.724Z,23.52
2022-11-16T00:41:46.322Z,23.45
2022-11-16T00:44:13.506Z,32.10
2022-11-16T00:46:41.465Z,29.45
2022-11-16T00:49:09.684Z,25.83
2022-11-16T00:51:37.622Z,26.80
2022-11-16T00:54:06.645Z,28.45
2022-11-16T00:56:34.450Z,30.33
2022-11-16T00:59:01.360Z,27.33
2022-11-16T01:01:28.713Z,26.63
2022-11-16T01:03:55.862Z,25.35
2022-11-16T01:06:23.529Z,26.85
2022-11-16T01:08:51.283Z,28.70
2022-11-16T01:11:38.136Z,28.38
2022-11-16T01:14:08.503Z,23.05
2022-11-16T01:16:36.375Z,27.75
2022-11-16T01:19:05.180Z,23.55
2022-11-16T01:21:33.288Z,25.92
2022-11-16T01:24:00.467Z,26.55
2022-11-16T01:26:27.831Z,24.98
2022-11-16T01:28:54.613Z,25.42
2022-11-16T01:31:21.730Z,23.77
2022-11-16T01:33:48.613Z,24.70
2022-11-16T01:36:15.854Z,25.33
2022-11-16T01:38:45.776Z,22.92
2022-11-16T01:41:24.191Z,24.60
2022-11-16T01:44:34.044Z,23.48
2022-11-16T01:47:10.077Z,21.73
2022-11-16T01:49:42.890Z,22.30
2022-11-16T01:52:16.766Z,23.75
2022-11-16T01:54:48.233Z,24.63
2022-11-16T01:57:39.526Z,20.95
2022-11-16T02:00:10.956Z,25.67
2022-11-16T02:02:37.952Z,23.25
2022-11-16T02:05:06.925Z,24.33
2022-11-16T02:08:23.630Z,18.48
2022-11-16T02:13:53.958Z,23.30
2022-11-16T02:17:12.243Z,18.70
2022-11-16T02:19:52.422Z,24.00
2022-11-16T02:22:54.004Z,25.42
2022-11-16T02:25:58.113Z,18.75
2022-11-16T02:28:48.736Z,20.63
2022-11-16T02:31:28.038Z,20.27
2022-11-16T02:33:57.451Z,22.15
2022-11-16T02:36:26.194Z,22.35
2022-11-16T02:39:16.319Z,21.00
2022-11-16T02:41:49.857Z,21.98
2022-11-16T02:44:26.791Z,21.75
2022-11-16T02:47:00.238Z,20.45
2022-11-16T02:49:31.294Z,21.08
2022-11-16T02:51:59.320Z,21.63
2022-11-16T02:54:26.209Z,24.20
2022-11-16T02:57:29.109Z,23.13
2022-11-16T02:59:59.063Z,21.60
2022-11-16T03:02:42.745Z,21.90
2022-11-16T03:05:32.036Z,23.35
2022-11-16T03:08:28.502Z,21.48
2022-11-16T03:11:25.516Z,22.85
2022-11-16T03:13:59.018Z,24.25
2022-11-16T03:16:35.084Z,23.33
2022-11-16T03:19:32.736Z,22.77
2022-11-16T03:22:11.365Z,20.95
2022-11-16T03:24:38.971Z,21.88
2022-11-16T03:27:13.040Z,21.15
2022-11-16T03:30:05.751Z,22.70
2022-11-16T03:33:08.363Z,21.70
2022-11-16T03:35:41.206Z,23.83
2022-11-16T03:38:11.990Z,21.67
2022-11-16T03:40:42.215Z,21.88
2022-11-16T03:43:10.778Z,18.35
2022-11-16T03:45:38.486Z,23.10
2022-11-16T03:48:07.608Z,21.77
2022-11-16T03:50:34.753Z,23.20
2022-11-16T03:53:01.566Z,21.70
2022-11-16T03:55:28.650Z,23.77
2022-11-16T03:57:55.552Z,22.60
2022-11-16T04:00:22.615Z,23.50
2022-11-16T04:02:50.141Z,20.88
2022-11-16T04:05:36.270Z,19.45
2022-11-16T04:08:21.606Z,19.75
2022-11-16T04:11:07.105Z,20.20
2022-11-16T04:13:54.259Z,20.92
2022-11-16T04:16:39.887Z,21.27
2022-11-16T04:22:19.723Z,23.58
2022-11-16T04:24:56.635Z,18.63
2022-11-16T04:27:49.299Z,20.23
2022-11-16T04:30:16.844Z,20.63
2022-11-16T04:33:02.539Z,17.92
2022-11-16T04:38:15.255Z,17.88
2022-11-16T04:40:42.239Z,19.88
2022-11-16T04:43:09.325Z,18.35
2022-11-16T04:45:55.256Z,18.88
2022-11-16T04:48:22.392Z,22.08
2022-11-16T04:50:49.244Z,18.10
2022-11-16T04:53:16.846Z,20.00
2022-11-16T04:55:43.669Z,20.90
2022-11-16T04:58:10.763Z,20.17
2022-11-16T05:00:37.601Z,17.45
2022-11-16T05:03:05.500Z,18.48
2022-11-16T05:05:32.386Z,17.33
2022-11-16T05:08:00.320Z,18.15
2022-11-16T05:10:27.242Z,19.50
2022-11-16T05:12:54.470Z,17.27
2022-11-16T05:15:21.486Z,19.05
2022-11-16T05:17:48.613Z,20.15
2022-11-16T05:20:33.997Z,20.40
2022-11-16T05:23:01.035Z,22.17
2022-11-16T05:25:31.269Z,19.38
2022-11-16T05:28:01.114Z,21.83
2022-11-16T05:30:29.701Z,18.50
2022-11-16T05:32:56.776Z,20.50
2022-11-16T05:35:23.589Z,17.92
2022-11-16T05:37:50.621Z,20.88
2022-11-16T05:40:17.507Z,17.83
2022-11-16T05:42:44.610Z,19.65
2022-11-16T05:45:11.554Z,17.50
2022-11-16T05:47:38.705Z,17.95
2022-11-16T05:50:06.242Z,18.92
2022-11-16T05:52:33.306Z,21.98
2022-11-16T05:55:00.174Z,20.83
2022-11-16T05:57:27.335Z,20.52
2022-11-16T05:59:54.160Z,20.48
2022-11-16T06:02:21.357Z,24.23
2022-11-16T06:04:48.141Z,23.45
2022-11-16T06:07:15.316Z,23.08
2022-11-16T06:09:43.987Z,23.67
2022-11-16T06:12:11.899Z,21.88
2022-11-16T06:14:38.688Z,24.40
2022-11-16T06:17:06.115Z,20.95
2022-11-16T06:19:32.987Z,21.67
2022-11-16T06:22:00.154Z,21.10
2022-11-16T06:24:27.090Z,29.63
2022-11-16T06:26:54.173Z,28.35
2022-11-16T06:29:20.997Z,28.05
2022-11-16T06:31:48.122Z,30.13
2022-11-16T06:34:14.974Z,34.25
2022-11-16T06:36:42.351Z,36.22
2022-11-16T06:39:11.426Z,36.45
2022-11-16T06:41:41.332Z,43.22
2022-11-16T06:44:08.713Z,41.55
2022-11-16T06:46:35.842Z,48.78
2022-11-16T06:49:02.637Z,51.60
2022-11-16T06:51:29.772Z,51.40
2022-11-16T06:53:56.583Z,46.28
2022-11-16T06:56:23.976Z,52.95
2022-11-16T06:58:53.485Z,47.00
2022-11-16T07:01:20.919Z,49.38
2022-11-16T07:03:47.832Z,49.15
2022-11-16T07:06:15.480Z,41.00
2022-11-16T07:08:42.378Z,37.35
2022-11-16T07:11:11.200Z,30.17
2022-11-16T07:13:39.494Z,28.35
2022-11-16T07:16:11.951Z,24.60
2022-11-16T07:18:41.495Z,25.42
2022-11-16T07:21:14.696Z,24.08
2022-11-16T07:23:42.450Z,26.70
2022-11-16T07:26:10.862Z,26.00
2022-11-16T07:28:39.987Z,24.45
2022-11-16T07:31:14.138Z,28.38
2022-11-16T07:33:41.426Z,29.20
2022-11-16T07:36:12.951Z,23.83
2022-11-16T07:38:40.218Z,22.95
2022-11-16T07:41:11.677Z,25.48
2022-11-16T07:43:39.971Z,23.15
2022-11-16T07:46:45.411Z,27.00
2022-11-16T07:49:00.053Z,20.90
2022-11-16T07:51:27.170Z,21.27
2022-11-16T07:53:58.496Z,20.02
2022-11-16T07:56:25.791Z,24.48
2022-11-16T07:58:52.661Z,23.02
2022-11-16T08:01:19.887Z,21.85
2022-11-16T08:03:47.013Z,20.23
2022-11-16T08:06:15.205Z,20.08
2022-11-16T08:08:42.493Z,22.23
2022-11-16T08:11:12.180Z,20.55
2022-11-16T08:13:41.599Z,22.50
2022-11-16T08:16:22.256Z,22.58
2022-11-16T08:18:49.919Z,20.17
2022-11-16T08:21:19.320Z,26.55
2022-11-16T08:23:47.123Z,24.48
2022-11-16T08:26:18.431Z,22.40
2022-11-16T08:28:48.358Z,22.08
2022-11-16T08:31:20.938Z,27.98
2022-11-16T08:33:48.094Z,22.58
2022-11-16T08:36:21.766Z,23.10
2022-11-16T08:38:51.093Z,28.33
2022-11-16T08:41:19.635Z,30.92
2022-11-16T08:43:47.422Z,27.88
2022-11-16T08:46:15.539Z,24.23
2022-11-16T08:48:42.600Z,22.48
2022-11-16T08:51:19.195Z,26.15
2022-11-16T08:53:48.582Z,20.73
2022-11-16T08:56:18.513Z,29.25
2022-11-16T08:58:53.764Z,24.15
2022-11-16T09:01:26.686Z,22.20
2022-11-16T09:03:54.611Z,22.17
2022-11-16T09:06:24.079Z,23.10
2022-11-16T09:08:51.730Z,23.13
2022-11-16T09:11:23.421Z,29.30
2022-11-16T09:13:53.124Z,22.70
2022-11-16T09:16:21.570Z,21.85
2022-11-16T09:18:51.436Z,19.58
2022-11-16T09:21:25.804Z,25.83
2022-11-16T09:23:54.577Z,29.73
2022-11-16T09:26:23.219Z,23.95
2022-11-16T09:28:59.456Z,30.70
2022-11-16T09:31:34.801Z,27.60
2022-11-16T09:34:02.879Z,21.92
2022-11-16T09:36:30.653Z,26.00
2022-11-16T09:39:30.248Z,22.83
2022-11-16T09:42:01.647Z,21.63
2022-11-16T09:44:49.886Z,27.90
2022-11-16T09:47:21.930Z,20.80
2022-11-16T09:50:03.955Z,25.55
2022-11-16T09:52:37.138Z,20.92
2022-11-16T09:55:54.846Z,24.17
2022-11-16T09:58:40.853Z,28.73
2022-11-16T10:01:25.396Z,21.48
2022-11-16T10:04:04.609Z,23.40
2022-11-16T10:07:00.938Z,27.75
2022-11-16T10:09:30.056Z,19.65
2022-11-16T10:12:33.992Z,21.20
2022-11-16T10:15:37.491Z,25.92
2022-11-16T10:18:27.798Z,24.20
2022-11-16T10:21:07.402Z,25.05
2022-11-16T10:23:54.410Z,21.98
2022-11-16T10:26:47.085Z,23.30
2022-11-16T10:29:26.058Z,24.10
2022-11-16T10:32:29.530Z,23.50
2022-11-16T10:35:39.699Z,21.40
2022-11-16T10:38:33.169Z,23.52
2022-11-16T10:41:18.105Z,23.75
2022-11-16T10:43:47.891Z,21.48
2022-11-16T10:46:39.729Z,22.52
2022-11-16T10:50:26.215Z,23.23
2022-11-16T10:52:53.047Z,20.90
2022-11-16T10:55:22.540Z,28.63
2022-11-16T10:58:06.584Z,25.48
2022-11-16T11:00:35.641Z,24.17
2022-11-16T11:03:02.953Z,24.55
2022-11-16T11:05:31.449Z,25.63
2022-11-16T11:08:09.330Z,22.90
2022-11-16T11:10:42.219Z,27.40
2022-11-16T11:13:11.957Z,26.48
2022-11-16T11:15:41.634Z,31.42
2022-11-16T11:18:23.628Z,22.02
2022-11-16T11:21:06.703Z,27.00
2022-11-16T11:23:51.635Z,25.98
2022-11-16T11:26:36.948Z,46.38
2022-11-16T11:29:30.675Z,28.30
2022-11-16T11:32:19.317Z,26.23
2022-11-16T11:34:54.414Z,23.27
2022-11-16T11:37:36.054Z,23.25
2022-11-16T11:40:24.782Z,26.27
2022-11-16T11:42:57.761Z,21.05
2022-11-16T11:45:52.282Z,24.80
2022-11-16T11:48:41.327Z,22.63
2022-11-16T11:51:22.671Z,29.05
2022-11-16T11:53:59.555Z,24.83
2022-11-16T11:56:30.699Z,22.13
2022-11-16T11:58:58.216Z,23.80
2022-11-16T12:01:48.300Z,28.10
2022-11-16T12:05:00.928Z,24.15
2022-11-16T12:07:35.780Z,23.00
2022-11-16T12:13:04.127Z,24.42
2022-11-16T12:16:03.318Z,25.40
2022-11-16T12:19:00.891Z,23.85
2022-11-16T12:22:04.915Z,21.40
2022-11-16T12:24:56.797Z,22.65
2022-11-16T12:27:54.403Z,24.17
2022-11-16T12:30:24.990Z,24.48
2022-11-16T12:33:51.328Z,22.60
2022-11-16T12:36:33.984Z,25.50
2022-11-16T12:39:39.441Z,22.27
2022-11-16T12:42:40.426Z,25.57
2022-11-16T12:45:46.007Z,26.35
2022-11-16T12:48:44.480Z,25.02
2022-11-16T12:51:17.598Z,24.58
2022-11-16T12:54:10.115Z,26.35
2022-11-16T12:56:52.287Z,26.23
2022-11-16T13:00:00.079Z,26.15
2022-11-16T13:02:55.362Z,24.23
2022-11-16T13:05:43.393Z,26.27
2022-11-16T13:08:33.745Z,26.25
2022-11-16T13:11:16.130Z,29.05
2022-11-16T13:13:51.497Z,29.98
2022-11-16T13:16:22.792Z,32.20
2022-11-16T13:18:52.266Z,33.35
2022-11-16T13:21:48.897Z,30.23
2022-11-16T13:24:35.462Z,34.75
2022-11-16T13:27:48.160Z,28.15
2022-11-16T13:30:32.833Z,27.08
2022-11-16T13:33:33.552Z,33.30
2022-11-16T13:36:32.498Z,35.30
2022-11-16T13:38:59.282Z,33.35
2022-11-16T13:41:40.138Z,39.78
2022-11-16T13:44:29.774Z,32.70
2022-11-16T13:47:05.856Z,30.50
2022-11-16T13:49:51.573Z,32.10
2022-11-16T13:52:40.237Z,33.17
2022-11-16T13:55:24.692Z,34.45
2022-11-16T13:57:57.274Z,34.97
2022-11-16T14:00:40.324Z,33.05
2022-11-16T14:03:16.639Z,39.25
2022-11-16T14:05:49.239Z,33.00
2022-11-16T14:08:39.330Z,33.40
2022-11-16T14:11:38.960Z,36.95
2022-11-16T14:14:12.877Z,35.63
2022-11-16T14:16:46.108Z,33.08
2022-11-16T14:19:44.601Z,36.25
2022-11-16T14:22:58.070Z,31.65
2022-11-16T14:26:06.011Z,32.10
2022-11-16T14:29:10.158Z,32.22
2022-11-16T14:31:58.952Z,36.15
2022-11-16T14:34:41.614Z,34.15
2022-11-16T14:37:39.797Z,31.63
2022-11-16T14:40:19.829Z,32.90
2022-11-16T14:45:56.614Z,32.95
2022-11-16T14:48:28.184Z,38.72
2022-11-16T14:51:45.211Z,37.00
2022-11-16T14:54:34.345Z,37.50
2022-11-16T14:57:18.880Z,39.80
2022-11-16T14:59:46.370Z,33.78
2022-11-16T15:02:24.702Z,37.38
2022-11-16T15:04:53.871Z,40.30
2022-11-16T15:07:24.754Z,36.05
2022-11-16T15:09:56.661Z,37.83
2022-11-16T15:12:44.023Z,39.35
2022-11-16T15:15:11.061Z,40.40
2022-11-16T15:17:51.508Z,41.33
2022-11-16T15:20:28.645Z,45.53
2022-11-16T15:22:59.029Z,44.60
2022-11-16T15:25:38.030Z,40.42
2022-11-16T15:28:15.367Z,41.45
2022-11-16T15:30:49.978Z,44.65
2022-11-16T15:33:29.800Z,45.78
2022-11-16T15:35:58.012Z,46.38
2022-11-16T15:38:37.669Z,47.03
2022-11-16T15:41:05.937Z,41.63
2022-11-16T15:43:44.810Z,37.20
2022-11-16T15:46:18.483Z,49.03
2022-11-16T15:48:46.520Z,42.33
2022-11-16T15:51:23.459Z,40.17
2022-11-16T15:53:55.489Z,38.05
2022-11-16T15:56:25.477Z,46.55
2022-11-16T15:58:54.972Z,37.35
2022-11-16T16:01:24.622Z,43.10
2022-11-16T16:03:59.119Z,40.00
2022-11-16T16:07:01.869Z,38.15
2022-11-16T16:09:39.330Z,39.75
2022-11-16T16:12:22.931Z,35.00
2022-11-16T16:14:52.653Z,35.55
2022-11-16T16:17:30.696Z,32.60
2022-11-16T16:20:06.498Z,33.55
2022-11-16T16:22:38.138Z,36.33
2022-11-16T16:25:07.164Z,35.22
2022-11-16T16:27:40.694Z,35.78
2022-11-16T16:30:14.161Z,36.33
2022-11-16T16:32:41.492Z,35.45
2022-11-16T16:35:19.526Z,35.33
2022-11-16T16:37:50.649Z,30.70
2022-11-16T16:40:18.519Z,32.13
2022-11-16T16:42:49.025Z,29.98
2022-11-16T16:45:24.828Z,31.23
2022-11-16T16:47:51.926Z,29.98
2022-11-16T16:50:18.739Z,30.92
2022-11-16T16:52:46.243Z,27.13
2022-11-16T16:55:13.130Z,29.20
2022-11-16T16:57:40.333Z,27.30
2022-11-16T17:00:09.505Z,28.90
2022-11-16T17:02:37.917Z,31.15
2022-11-16T17:05:05.544Z,33.95
2022-11-16T17:07:32.879Z,29.10
2022-11-16T17:09:59.859Z,26.63
2022-11-16T17:12:27.882Z,24.80
2022-11-16T17:14:54.801Z,27.50
2022-11-16T17:17:26.323Z,27.27
2022-11-16T17:19:53.289Z,27.08
2022-11-16T17:22:20.858Z,27.55
2022-11-16T17:24:49.392Z,28.33
2022-11-16T17:27:16.482Z,25.00
2022-11-16T17:29:43.428Z,29.92
2022-11-16T17:32:10.600Z,30.98
2022-11-16T17:34:39.989Z,30.40
2022-11-16T17:37:07.260Z,25.27
2022-11-16T17:39:34.492Z,27.25
2022-11-16T17:42:01.566Z,24.88
2022-11-16T17:44:28.521Z,25.65
2022-11-16T17:46:55.799Z,31.58
2022-11-16T17:49:22.790Z,26.60
2022-11-16T17:51:49.936Z,27.33
2022-11-16T17:54:16.876Z,27.73
2022-11-16T17:56:44.147Z,31.30
2022-11-16T17:59:11.151Z,30.15
2022-11-16T18:01:38.311Z,29.85
2022-11-16T18:04:05.282Z,26.58
2022-11-16T18:06:33.252Z,29.02
2022-11-16T18:09:00.303Z,28.48
2022-11-16T18:11:28.674Z,27.17
2022-11-16T18:13:58.939Z,27.10
2022-11-16T18:16:30.113Z,33.80
2022-11-16T18:19:00.188Z,26.15
2022-11-16T18:21:28.312Z,26.50
2022-11-16T18:23:55.716Z,27.48
2022-11-16T18:26:24.265Z,24.67
2022-11-16T18:28:53.265Z,28.35
2022-11-16T18:31:23.823Z,41.65
2022-11-16T18:33:51.991Z,67.65
2022-11-16T18:36:21.264Z,75.28
2022-11-16T18:38:48.872Z,45.72
2022-11-16T18:41:20.669Z,71.53
2022-11-16T18:43:53.147Z,30.95
2022-11-16T18:46:23.927Z,33.70
2022-11-16T18:48:51.150Z,37.33
2022-11-16T18:51:20.166Z,38.97
2022-11-16T18:53:47.448Z,32.58
2022-11-16T18:56:16.096Z,28.83
2022-11-16T18:58:50.422Z,30.23
2022-11-16T19:01:22.013Z,31.63
2022-11-16T19:03:50.027Z,27.35
2022-11-16T19:06:18.287Z,33.05
2022-11-16T19:08:52.176Z,38.20
2022-11-16T19:11:24.127Z,31.38
2022-11-16T19:14:00.001Z,33.97
2022-11-16T19:16:27.567Z,34.33
2022-11-16T19:18:54.543Z,28.25
2022-11-16T19:21:22.512Z,29.63
2022-11-16T19:23:55.045Z,25.35
2022-11-16T19:26:26.416Z,19.95
2022-11-16T19:28:54.413Z,16.75
2022-11-16T19:31:26.801Z,14.52
2022-11-16T19:34:04.635Z,14.98
2022-11-16T19:36:34.222Z,12.93
2022-11-16T19:39:01.733Z,14.48
2022-11-16T19:41:29.018Z,14.70
2022-11-16T19:44:00.286Z,17.02
2022-11-16T19:46:33.819Z,14.35
2022-11-16T19:49:01.531Z,12.95
2022-11-16T19:51:32.450Z,11.93
2022-11-16T19:54:03.188Z,22.73
2022-11-16T19:56:30.770Z,13.57
2022-11-16T19:58:57.863Z,12.98
2022-11-16T20:01:29.369Z,12.50
2022-11-16T20:04:00.599Z,10.88
2022-11-16T20:06:39.218Z,15.70
2022-11-16T20:09:11.315Z,12.90
2022-11-16T20:11:41.205Z,17.30
2022-11-16T20:14:11.759Z,9.90
2022-11-16T20:16:41.738Z,11.25
2022-11-16T20:19:10.282Z,12.38
2022-11-16T20:21:42.341Z,12.23
2022-11-16T20:24:16.214Z,11.55
2022-11-16T20:26:48.281Z,14.13
2022-11-16T20:29:21.956Z,11.57
2022-11-16T20:31:49.316Z,10.25
2022-11-16T20:34:20.312Z,12.30
2022-11-16T20:36:50.926Z,8.52
2022-11-16T20:39:20.615Z,8.13
2022-11-16T20:41:48.871Z,9.63
2022-11-16T20:44:21.062Z,11.35
2022-11-16T20:46:50.665Z,8.48
2022-11-16T20:49:18.291Z,14.07
2022-11-16T20:51:47.664Z,11.25
2022-11-16T20:54:14.991Z,10.27
2022-11-16T20:56:42.275Z,8.27
2022-11-16T20:59:09.090Z,11.60
2022-11-16T21:01:36.745Z,13.75
2022-11-16T21:04:06.046Z,13.32
2022-11-16T21:06:33.853Z,15.65
2022-11-16T21:09:01.297Z,15.57
2022-11-16T21:11:51.938Z,15.25
2022-11-16T21:14:20.222Z,13.25
2022-11-16T21:16:47.462Z,20.40
2022-11-16T21:19:14.809Z,12.32
2022-11-16T21:21:41.989Z,10.80
2022-11-16T21:24:09.852Z,19.08
2022-11-16T21:26:37.955Z,14.15
2022-11-16T21:29:05.420Z,12.07
2022-11-16T21:31:36.231Z,11.90
2022-11-16T21:34:03.880Z,16.73
2022-11-16T21:36:32.364Z,15.13
2022-11-16T21:39:00.011Z,14.40
2022-11-16T21:41:27.904Z,11.40
2022-11-16T21:43:55.544Z,12.60
2022-11-16T21:46:26.269Z,12.02
2022-11-16T21:48:56.668Z,14.18
2022-11-16T21:51:27.190Z,11.95
2022-11-16T21:53:54.570Z,13.52
2022-11-16T21:56:25.157Z,20.73
2022-11-16T21:58:53.732Z,16.02
2022-11-16T22:01:23.754Z,15.10
2022-11-16T22:04:11.028Z,13.70
2022-11-16T22:06:56.695Z,15.80
2022-11-16T22:11:50.652Z,13.45
2022-11-16T22:14:17.624Z,13.70
2022-11-16T22:16:44.503Z,11.82
2022-11-16T22:19:11.663Z,17.02
2022-11-16T22:21:38.494Z,13.10
2022-11-16T22:24:05.996Z,11.05
2022-11-16T22:26:32.974Z,11.27
2022-11-16T22:29:00.450Z,13.70
2022-11-16T22:31:27.222Z,11.20
2022-11-16T22:33:54.339Z,12.45
2022-11-16T22:36:21.185Z,12.95
2022-11-16T22:38:48.827Z,15.65
2022-11-16T22:41:15.662Z,13.35
2022-11-16T22:43:42.709Z,13.63
2022-11-16T22:46:10.951Z,14.95
2022-11-16T22:48:40.386Z,12.85
2022-11-16T22:51:23.561Z,12.38
2022-11-16T22:54:05.452Z,14.23
2022-11-16T22:56:33.693Z,18.20
2022-11-16T22:59:02.433Z,15.20
2022-11-16T23:01:29.291Z,13.38
2022-11-16T23:03:56.314Z,11.77
2022-11-16T23:06:23.402Z,12.27
2022-11-16T23:08:50.900Z,16.25
2022-11-16T23:11:42.906Z,13.60
2022-11-16T23:14:32.879Z,14.52
2022-11-16T23:17:01.147Z,13.93
2022-11-16T23:19:47.321Z,16.02
2022-11-16T23:22:40.041Z,13.95
2022-11-16T23:25:29.878Z,17.02
2022-11-16T23:28:17.140Z,16.98
2022-11-16T23:30:44.229Z,17.50
2022-11-16T23:33:11.505Z,15.82
2022-11-16T23:35:38.747Z,13.50
2022-11-16T23:38:07.918Z,14.70
2022-11-16T23:40:38.858Z,13.23
2022-11-16T23:43:28.209Z,19.23
2022-11-16T23:45:55.381Z,14.13
2022-11-16T23:48:22.212Z,18.98
2022-11-16T23:50:49.329Z,21.55
2022-11-16T23:53:16.207Z,15.45
2022-11-16T23:55:43.272Z,14.85
2022-11-16T23:58:14.409Z,15.77
